Thailine 9 — 9WGP9 — position and weather

sailwx.info

Track history (hours):
 
Tides and Currents Weather Stations Pressure Air Temp Water Temp Dewpoint Dewpoint Depression Visibility Wind Speed Wind Dir Waves Ship Positions

Thailine 9

Last reported at 2017-Aug-10 11:09 UTC. Time now 2017-Aug-17 19:33 UTC.
Position N 34°56' E 139°26'.

Length 113 m; draft 5.1 m.

Type: Ship. MMSI: 533791000.

Date/timePositionNaut miles runAvg speedWind from/ knotsBaromVisibWave heightAir tempDewpointWater temp
2017-Aug-10 11:09N 34°56' E 139°26'211.1
2017-Aug-10 11:00N 34°57' E 139°28'511.1
2017-Aug-10 10:31N 35°01' E 139°33'611.1
2017-Aug-10 10:01N 35°05' E 139°38'510.4
2017-Aug-10 09:30N 35°08' E 139°43'510.7
2017-Aug-10 09:01N 35°13' E 139°46'5 9.8
2017-Aug-10 08:31N 35°17' E 139°44'510.5
2017-Aug-10 08:01N 35°22' E 139°42'4 8.7
2017-Aug-10 07:31N 35°27' E 139°41'1 1.7
2017-Aug-10 07:00N 35°27' E 139°41'0 0.0
2017-Aug-10 06:28N 35°27' E 139°41'0 0.0
2017-Aug-10 05:58N 35°27' E 139°41'0 0.0
2017-Aug-10 05:28N 35°27' E 139°41'0 0.0
2017-Aug-10 04:58N 35°27' E 139°41'0 0.0
2017-Aug-10 04:28N 35°27' E 139°41'0 0.0
2017-Aug-10 03:58N 35°27' E 139°41'0 0.0
2017-Aug-10 03:28N 35°27' E 139°41'0 0.0
2017-Aug-10 02:58N 35°27' E 139°41'0 0.0
2017-Aug-10 02:28N 35°27' E 139°41'0 0.0
2017-Aug-10 01:58N 35°27' E 139°41'0 0.0
2017-Aug-10 01:28N 35°27' E 139°41'0 0.0
2017-Aug-10 00:58N 35°27' E 139°41'0 0.0
2017-Aug-10 00:28N 35°27' E 139°41'0 0.0
2017-Aug-09 23:58N 35°27' E 139°41'0 0.0
2017-Aug-09 23:28N 35°27' E 139°41'0 0.0
2017-Aug-09 22:58N 35°27' E 139°41'0 0.0
2017-Aug-09 22:30N 35°27' E 139°41'2 3.3
2017-Aug-09 22:01N 35°26' E 139°42'0 0.3
2017-Aug-09 21:30N 35°26' E 139°42'0 0.0
2017-Aug-09 21:00N 35°26' E 139°42'0 0.0
2017-Aug-09 20:30N 35°26' E 139°42'0 0.0
2017-Aug-09 20:00N 35°26' E 139°42'0 0.0
2017-Aug-09 19:30N 35°26' E 139°42'0 0.0
2017-Aug-09 19:00N 35°26' E 139°42'0 0.0
2017-Aug-09 18:30N 35°26' E 139°42'0 0.0
2017-Aug-09 18:00N 35°26' E 139°42'0 0.0
2017-Aug-09 17:30N 35°26' E 139°42'0 0.0
2017-Aug-09 17:00N 35°26' E 139°42'0 0.0
2017-Aug-09 16:30N 35°26' E 139°42'0 0.0
2017-Aug-09 16:00N 35°26' E 139°42'0 0.0
2017-Aug-09 15:30N 35°26' E 139°42'0 0.0
2017-Aug-09 15:00N 35°26' E 139°42'0 0.0
2017-Aug-09 14:30N 35°26' E 139°42'0 0.0
2017-Aug-09 14:00N 35°26' E 139°42'0 0.0
2017-Aug-09 13:30N 35°26' E 139°42'0 0.0
2017-Aug-09 13:00N 35°26' E 139°42'0 0.0
2017-Aug-09 12:30N 35°26' E 139°42'0 0.0
2017-Aug-09 12:00N 35°26' E 139°42'0 0.0
2017-Aug-09 11:27N 35°26' E 139°42'0 0.1
2017-Aug-09 11:01N 35°26' E 139°42'2 5.0
2017-Aug-09 10:30N 35°24' E 139°43'510.8
2017-Aug-09 10:00N 35°18' E 139°44'611.1
2017-Aug-09 09:30N 35°13' E 139°47'612.1
2017-Aug-09 09:00N 35°07' E 139°46'612.2
2017-Aug-09 08:30N 35°02' E 139°43'611.2
2017-Aug-09 08:00N 34°56' E 139°44'  
Track history (hours):
 
Tides and Currents Weather Stations Pressure Air Temp Water Temp Dewpoint Dewpoint Depression Visibility Wind Speed Wind Dir Waves Ship Positions

Thailine 9

Last reported at 2017-Aug-10 11:09 UTC. Time now 2017-Aug-17 19:33 UTC.
Position N 34°56' E 139°26'.

Length 113 m; draft 5.1 m.

Type: Ship. MMSI: 533791000.

Date/timePositionNaut miles runAvg speedWind from/ knotsBaromVisibWave heightAir tempDewpointWater temp
2017-Aug-10 11:09N 34°56' E 139°26'211.1
2017-Aug-10 11:00N 34°57' E 139°28'511.1
2017-Aug-10 10:31N 35°01' E 139°33'611.1
2017-Aug-10 10:01N 35°05' E 139°38'510.4
2017-Aug-10 09:30N 35°08' E 139°43'510.7
2017-Aug-10 09:01N 35°13' E 139°46'5 9.8
2017-Aug-10 08:31N 35°17' E 139°44'510.5
2017-Aug-10 08:01N 35°22' E 139°42'4 8.7
2017-Aug-10 07:31N 35°27' E 139°41'1 1.7
2017-Aug-10 07:00N 35°27' E 139°41'0 0.0
2017-Aug-10 06:28N 35°27' E 139°41'0 0.0
2017-Aug-10 05:58N 35°27' E 139°41'0 0.0
2017-Aug-10 05:28N 35°27' E 139°41'0 0.0
2017-Aug-10 04:58N 35°27' E 139°41'0 0.0
2017-Aug-10 04:28N 35°27' E 139°41'0 0.0
2017-Aug-10 03:58N 35°27' E 139°41'0 0.0
2017-Aug-10 03:28N 35°27' E 139°41'0 0.0
2017-Aug-10 02:58N 35°27' E 139°41'0 0.0
2017-Aug-10 02:28N 35°27' E 139°41'0 0.0
2017-Aug-10 01:58N 35°27' E 139°41'0 0.0
2017-Aug-10 01:28N 35°27' E 139°41'0 0.0
2017-Aug-10 00:58N 35°27' E 139°41'0 0.0
2017-Aug-10 00:28N 35°27' E 139°41'0 0.0
2017-Aug-09 23:58N 35°27' E 139°41'0 0.0
2017-Aug-09 23:28N 35°27' E 139°41'0 0.0
2017-Aug-09 22:58N 35°27' E 139°41'0 0.0
2017-Aug-09 22:30N 35°27' E 139°41'2 3.3
2017-Aug-09 22:01N 35°26' E 139°42'0 0.3
2017-Aug-09 21:30N 35°26' E 139°42'0 0.0
2017-Aug-09 21:00N 35°26' E 139°42'0 0.0
2017-Aug-09 20:30N 35°26' E 139°42'0 0.0
2017-Aug-09 20:00N 35°26' E 139°42'0 0.0
2017-Aug-09 19:30N 35°26' E 139°42'0 0.0
2017-Aug-09 19:00N 35°26' E 139°42'0 0.0
2017-Aug-09 18:30N 35°26' E 139°42'0 0.0
2017-Aug-09 18:00N 35°26' E 139°42'0 0.0
2017-Aug-09 17:30N 35°26' E 139°42'0 0.0
2017-Aug-09 17:00N 35°26' E 139°42'0 0.0
2017-Aug-09 16:30N 35°26' E 139°42'0 0.0
2017-Aug-09 16:00N 35°26' E 139°42'0 0.0
2017-Aug-09 15:30N 35°26' E 139°42'0 0.0
2017-Aug-09 15:00N 35°26' E 139°42'0 0.0
2017-Aug-09 14:30N 35°26' E 139°42'0 0.0
2017-Aug-09 14:00N 35°26' E 139°42'0 0.0
2017-Aug-09 13:30N 35°26' E 139°42'0 0.0
2017-Aug-09 13:00N 35°26' E 139°42'0 0.0
2017-Aug-09 12:30N 35°26' E 139°42'0 0.0
2017-Aug-09 12:00N 35°26' E 139°42'0 0.0
2017-Aug-09 11:27N 35°26' E 139°42'0 0.1
2017-Aug-09 11:01N 35°26' E 139°42'2 5.0
2017-Aug-09 10:30N 35°24' E 139°43'510.8
2017-Aug-09 10:00N 35°18' E 139°44'611.1
2017-Aug-09 09:30N 35°13' E 139°47'612.1
2017-Aug-09 09:00N 35°07' E 139°46'612.2
2017-Aug-09 08:30N 35°02' E 139°43'611.2
2017-Aug-09 08:00N 34°56' E 139°44'  

Dump ship's entire track history